createdAt,value
2018-04-15T00:01:24.072Z,99.90
2018-04-15T00:03:50.907Z,99.90
2018-04-15T00:06:17.757Z,99.90
2018-04-15T00:08:45.390Z,99.90
2018-04-15T00:11:12.155Z,99.90
2018-04-15T00:13:39.001Z,99.90
2018-04-15T00:16:05.839Z,99.90
2018-04-15T00:18:32.687Z,99.90
2018-04-15T00:20:59.502Z,99.90
2018-04-15T00:23:26.269Z,99.90
2018-04-15T00:25:53.214Z,99.90
2018-04-15T00:28:20.057Z,99.90
2018-04-15T00:30:47.226Z,99.90
2018-04-15T00:33:14.049Z,99.90
2018-04-15T00:35:40.991Z,99.90
2018-04-15T00:38:08.347Z,99.90
2018-04-15T00:40:35.196Z,99.90
2018-04-15T00:43:01.869Z,99.90
2018-04-15T00:45:30.103Z,99.90
2018-04-15T00:47:56.945Z,99.90
2018-04-15T00:50:23.886Z,99.90
2018-04-15T00:52:50.728Z,99.90
2018-04-15T00:55:17.570Z,99.90
2018-04-15T00:57:44.325Z,99.90
2018-04-15T01:00:11.972Z,99.90
2018-04-15T01:02:38.818Z,99.90
2018-04-15T01:05:05.661Z,99.90
2018-04-15T01:07:32.366Z,99.90
2018-04-15T01:09:59.119Z,99.90
2018-04-15T01:12:26.187Z,99.90
2018-04-15T01:14:53.848Z,99.90
2018-04-15T01:17:20.547Z,99.90
2018-04-15T01:19:47.534Z,99.90
2018-04-15T01:22:14.377Z,99.90
2018-04-15T01:24:41.319Z,99.90
2018-04-15T01:27:08.052Z,99.90
2018-04-15T01:29:34.899Z,99.90
2018-04-15T01:32:01.746Z,99.90
2018-04-15T01:34:28.485Z,99.90
2018-04-15T01:36:55.634Z,99.90
2018-04-15T01:39:22.477Z,99.90
2018-04-15T01:41:49.137Z,99.90
2018-04-15T01:44:15.952Z,99.90
2018-04-15T01:46:42.691Z,99.90
2018-04-15T01:49:09.538Z,99.90
2018-04-15T01:51:36.380Z,99.90
2018-04-15T01:54:03.224Z,99.90
2018-04-15T01:56:29.935Z,99.90
2018-04-15T01:58:56.705Z,99.90
2018-04-15T02:01:23.374Z,99.90
2018-04-15T02:03:50.286Z,99.90
2018-04-15T02:06:17.331Z,99.90
2018-04-15T02:08:44.073Z,99.90
2018-04-15T02:11:10.701Z,99.90
2018-04-15T02:13:37.554Z,99.90
2018-04-15T02:16:04.396Z,99.90
2018-04-15T02:18:31.072Z,99.90
2018-04-15T02:20:57.873Z,99.90
2018-04-15T02:23:24.697Z,99.90
2018-04-15T02:25:51.325Z,99.90
2018-04-15T02:28:18.692Z,99.90
2018-04-15T02:30:45.552Z,99.90
2018-04-15T02:33:12.394Z,99.90
2018-04-15T02:35:39.236Z,99.90
2018-04-15T02:38:06.282Z,99.90
2018-04-15T02:40:33.125Z,99.90
2018-04-15T02:43:00.069Z,99.90
2018-04-15T02:45:26.910Z,99.90
2018-04-15T02:47:53.530Z,99.90
2018-04-15T02:50:20.285Z,99.90
2018-04-15T02:52:47.234Z,99.90
2018-04-15T02:55:13.974Z,99.90
2018-04-15T02:57:40.709Z,99.90
2018-04-15T03:00:07.559Z,99.90
2018-04-15T03:02:34.401Z,99.90
2018-04-15T03:05:01.134Z,99.90
2018-04-15T03:07:28.082Z,99.90
2018-04-15T03:09:56.246Z,99.90
2018-04-15T03:12:22.995Z,99.90
2018-04-15T03:14:49.839Z,99.90
2018-04-15T03:17:16.574Z,99.90
2018-04-15T03:19:43.523Z,99.90
2018-04-15T03:22:10.258Z,99.90
2018-04-15T03:24:37.004Z,99.90
2018-04-15T03:27:04.356Z,99.90
2018-04-15T03:29:31.013Z,99.90
2018-04-15T03:31:57.835Z,99.90
2018-04-15T03:34:24.674Z,99.90
2018-04-15T03:36:51.520Z,99.90
2018-04-15T03:39:18.363Z,99.90
2018-04-15T03:41:45.207Z,99.90
2018-04-15T03:44:11.910Z,99.90
2018-04-15T03:46:39.396Z,99.90
2018-04-15T03:49:06.345Z,99.90
2018-04-15T03:51:33.086Z,99.90
2018-04-15T03:53:59.928Z,99.90
2018-04-15T03:56:26.873Z,99.90
2018-04-15T03:58:53.613Z,99.90
2018-04-15T04:01:20.355Z,99.90
2018-04-15T04:03:47.092Z,99.90
2018-04-15T04:06:14.177Z,99.90
2018-04-15T04:08:40.982Z,99.90
2018-04-15T04:11:07.710Z,99.90
2018-04-15T04:13:34.534Z,99.90
2018-04-15T04:16:01.227Z,99.90
2018-04-15T04:18:40.172Z,99.90
2018-04-15T04:21:19.156Z,99.90
2018-04-15T04:26:49.253Z,99.90
2018-04-15T04:29:16.751Z,99.90
2018-04-15T04:31:43.402Z,99.90
2018-04-15T04:34:10.232Z,99.90
2018-04-15T04:36:36.971Z,99.90
2018-04-15T04:39:03.814Z,99.90
2018-04-15T04:41:30.758Z,99.90
2018-04-15T04:43:57.600Z,99.90
2018-04-15T04:46:24.345Z,99.90
2018-04-15T04:48:51.078Z,99.90
2018-04-15T04:51:17.820Z,99.90
2018-04-15T04:53:44.480Z,99.90
2018-04-15T04:56:11.197Z,99.90
2018-04-15T04:58:38.036Z,99.90
2018-04-15T05:01:04.778Z,99.90
2018-04-15T05:03:31.515Z,99.90
2018-04-15T05:05:58.256Z,99.90
2018-04-15T05:08:25.001Z,99.90
2018-04-15T05:10:51.719Z,99.90
2018-04-15T05:13:18.479Z,99.90
2018-04-15T05:15:45.180Z,99.90
2018-04-15T05:18:12.671Z,99.90
2018-04-15T05:20:39.619Z,99.90
2018-04-15T05:23:06.334Z,99.90
2018-04-15T05:25:34.023Z,99.90
2018-04-15T05:28:00.764Z,99.90
2018-04-15T05:30:27.604Z,99.90
2018-04-15T05:32:54.343Z,99.90
2018-04-15T05:35:20.977Z,99.90
2018-04-15T05:37:48.130Z,99.90
2018-04-15T05:40:14.871Z,99.90
2018-04-15T05:42:41.713Z,99.90
2018-04-15T05:45:08.393Z,99.90
2018-04-15T05:47:35.193Z,99.90
2018-04-15T05:50:02.249Z,99.90
2018-04-15T05:52:29.082Z,99.90
2018-04-15T05:54:55.822Z,99.90
2018-04-15T05:57:22.869Z,99.90
2018-04-15T05:59:49.492Z,99.90
2018-04-15T06:02:16.247Z,99.90
2018-04-15T06:04:43.089Z,99.90
2018-04-15T06:07:09.748Z,99.90
2018-04-15T06:09:36.568Z,99.90
2018-04-15T06:12:03.714Z,99.90
2018-04-15T06:14:30.449Z,99.90
2018-04-15T06:16:57.198Z,99.90
2018-04-15T06:19:24.253Z,99.90
2018-04-15T06:21:50.985Z,99.90
2018-04-15T06:24:17.656Z,99.90
2018-04-15T06:26:44.775Z,99.90
2018-04-15T06:29:11.512Z,99.90
2018-04-15T06:31:38.222Z,99.90
2018-04-15T06:34:04.990Z,99.90
2018-04-15T06:36:31.731Z,99.90
2018-04-15T06:38:58.401Z,99.90
2018-04-15T06:41:25.076Z,99.90
2018-04-15T06:43:52.769Z,99.90
2018-04-15T06:46:19.509Z,99.90
2018-04-15T06:48:46.249Z,99.90
2018-04-15T06:51:13.086Z,99.90
2018-04-15T06:53:39.712Z,99.90
2018-04-15T06:56:06.669Z,99.90
2018-04-15T06:58:33.409Z,99.90
2018-04-15T07:01:00.044Z,99.90
2018-04-15T07:03:26.730Z,99.90
2018-04-15T07:05:54.246Z,99.90
2018-04-15T07:08:20.938Z,99.90
2018-04-15T07:10:47.724Z,99.90
2018-04-15T07:13:14.440Z,99.90
2018-04-15T07:15:41.926Z,99.90
2018-04-15T07:18:08.669Z,99.90
2018-04-15T07:20:35.609Z,99.90
2018-04-15T07:23:02.348Z,99.90
2018-04-15T07:25:29.087Z,99.90
2018-04-15T07:27:55.794Z,99.90
2018-04-15T07:30:23.237Z,99.90
2018-04-15T07:32:50.020Z,99.90
2018-04-15T07:35:16.760Z,99.90
2018-04-15T07:37:43.433Z,99.90
2018-04-15T07:40:10.078Z,99.90
2018-04-15T07:42:36.983Z,99.90
2018-04-15T07:45:03.885Z,99.90
2018-04-15T07:47:30.672Z,99.90
2018-04-15T07:49:57.339Z,99.90
2018-04-15T07:52:25.582Z,99.90
2018-04-15T07:54:52.322Z,99.90
2018-04-15T07:57:19.056Z,99.90
2018-04-15T07:59:45.904Z,99.90
2018-04-15T08:02:12.643Z,99.90
2018-04-15T08:04:39.345Z,99.90
2018-04-15T08:07:06.329Z,99.90
2018-04-15T08:09:33.065Z,99.90
2018-04-15T08:11:59.708Z,99.90
2018-04-15T08:14:26.340Z,99.90
2018-04-15T08:16:53.083Z,99.90
2018-04-15T08:19:19.827Z,99.90
2018-04-15T08:21:46.976Z,99.90
2018-04-15T08:24:13.600Z,99.90
2018-04-15T08:26:40.257Z,99.90
2018-04-15T08:29:06.987Z,99.90
2018-04-15T08:31:33.632Z,99.90
2018-04-15T08:34:00.275Z,99.90
2018-04-15T08:36:26.933Z,99.90
2018-04-15T08:38:53.629Z,99.90
2018-04-15T08:41:20.267Z,99.90
2018-04-15T08:43:47.017Z,99.90
2018-04-15T08:46:13.859Z,99.90
2018-04-15T08:48:40.492Z,99.90
2018-04-15T08:51:07.237Z,99.90
2018-04-15T08:53:33.974Z,99.90
2018-04-15T08:56:00.917Z,99.90
2018-04-15T08:58:27.662Z,99.90
2018-04-15T09:00:54.329Z,99.90
2018-04-15T09:03:21.858Z,99.90
2018-04-15T09:05:48.801Z,99.90
2018-04-15T09:08:15.544Z,99.90
2018-04-15T09:10:42.279Z,99.90
2018-04-15T09:13:09.021Z,99.90
2018-04-15T09:15:35.753Z,99.90
2018-04-15T09:18:02.705Z,99.90
2018-04-15T09:20:29.443Z,99.90
2018-04-15T09:22:56.134Z,99.90
2018-04-15T09:25:22.997Z,99.90
2018-04-15T09:27:50.484Z,99.90
2018-04-15T09:30:17.221Z,99.90
2018-04-15T09:32:44.373Z,99.90
2018-04-15T09:35:11.217Z,99.90
2018-04-15T09:37:37.916Z,99.90
2018-04-15T09:40:04.901Z,99.90
2018-04-15T09:42:31.637Z,99.90
2018-04-15T09:44:58.412Z,99.90
2018-04-15T09:47:25.536Z,99.90
2018-04-15T09:49:52.269Z,99.90
2018-04-15T09:52:19.114Z,99.90
2018-04-15T09:54:46.261Z,99.90
2018-04-15T09:57:12.996Z,99.90
2018-04-15T09:59:39.626Z,99.90
2018-04-15T10:02:06.448Z,99.90
2018-04-15T10:04:33.929Z,99.90
2018-04-15T10:07:00.677Z,99.90
2018-04-15T10:09:27.332Z,99.90
2018-04-15T10:11:54.232Z,99.90
2018-04-15T10:14:21.601Z,99.90
2018-04-15T10:16:48.456Z,99.90
2018-04-15T10:19:15.260Z,99.90
2018-04-15T10:21:42.749Z,99.90
2018-04-15T10:24:09.723Z,99.90
2018-04-15T10:26:36.440Z,99.90
2018-04-15T10:29:03.060Z,99.90
2018-04-15T10:31:30.636Z,99.90
2018-04-15T10:33:57.286Z,99.90
2018-04-15T10:36:24.113Z,99.90
2018-04-15T10:38:50.763Z,99.90
2018-04-15T10:41:17.701Z,99.90
2018-04-15T10:43:46.692Z,99.90
2018-04-15T10:46:13.406Z,99.90
2018-04-15T10:48:40.053Z,99.90
2018-04-15T10:51:07.426Z,99.90
2018-04-15T10:53:34.267Z,99.90
2018-04-15T10:56:00.897Z,99.90
2018-04-15T10:58:27.953Z,99.90
2018-04-15T11:00:54.789Z,99.90
2018-04-15T11:03:21.635Z,99.90
2018-04-15T11:05:49.612Z,99.90
2018-04-15T11:08:16.345Z,99.90
2018-04-15T11:10:43.058Z,99.90
2018-04-15T11:13:10.745Z,99.90
2018-04-15T11:15:37.485Z,99.90
2018-04-15T11:18:04.152Z,99.90
2018-04-15T11:20:30.966Z,99.90
2018-04-15T11:22:57.645Z,99.90
2018-04-15T11:25:24.445Z,99.90
2018-04-15T11:27:51.188Z,99.90
2018-04-15T11:30:17.856Z,99.90
2018-04-15T11:32:44.768Z,99.90
2018-04-15T11:35:11.442Z,99.90
2018-04-15T11:37:38.877Z,99.60
2018-04-15T11:40:05.559Z,99.50
2018-04-15T11:42:32.950Z,99.40
2018-04-15T11:44:59.646Z,99.40
2018-04-15T11:47:26.500Z,99.10
2018-04-15T11:49:53.953Z,98.40
2018-04-15T11:52:21.451Z,98.10
2018-04-15T11:54:48.186Z,98.00
2018-04-15T11:57:15.342Z,98.10
2018-04-15T11:59:42.080Z,98.40
2018-04-15T12:02:08.773Z,97.80
2018-04-15T12:04:35.764Z,97.40
2018-04-15T12:07:02.504Z,97.10
2018-04-15T12:09:29.347Z,96.90
2018-04-15T12:11:56.058Z,96.40
2018-04-15T12:14:23.456Z,95.90
2018-04-15T12:16:50.278Z,95.50
2018-04-15T12:19:16.945Z,95.50
2018-04-15T12:21:43.653Z,95.30
2018-04-15T12:24:10.401Z,94.90
2018-04-15T12:26:37.068Z,94.60
2018-04-15T12:29:03.711Z,94.10
2018-04-15T12:31:30.519Z,94.00
2018-04-15T12:33:57.372Z,94.50
2018-04-15T12:36:24.097Z,94.00
2018-04-15T12:38:50.840Z,93.50
2018-04-15T12:41:17.581Z,93.30
2018-04-15T12:43:44.424Z,93.10
2018-04-15T12:46:11.066Z,92.80
2018-04-15T12:48:37.903Z,92.20
2018-04-15T12:51:04.741Z,92.20
2018-04-15T12:53:31.698Z,92.30
2018-04-15T12:55:58.430Z,92.10
2018-04-15T12:58:25.089Z,91.60
2018-04-15T13:00:51.805Z,91.80
2018-04-15T13:03:18.851Z,91.20
2018-04-15T13:05:45.594Z,91.80
2018-04-15T13:08:12.334Z,91.50
2018-04-15T13:10:39.586Z,91.40
2018-04-15T13:13:06.434Z,91.10
2018-04-15T13:15:33.389Z,90.80
2018-04-15T13:18:00.080Z,90.90
2018-04-15T13:20:26.852Z,90.90
2018-04-15T13:22:53.560Z,90.90
2018-04-15T13:25:21.151Z,91.10
2018-04-15T13:27:47.891Z,91.10
2018-04-15T13:30:14.840Z,90.80
2018-04-15T13:32:41.571Z,90.80
2018-04-15T13:35:08.737Z,91.00
2018-04-15T13:37:35.466Z,91.10
2018-04-15T13:40:02.553Z,90.60
2018-04-15T13:42:29.354Z,90.70
2018-04-15T13:44:56.298Z,90.80
2018-04-15T13:47:23.213Z,91.00
2018-04-15T13:49:50.905Z,91.20
2018-04-15T13:52:17.618Z,91.20
2018-04-15T13:54:45.205Z,91.60
2018-04-15T13:57:11.945Z,91.60
2018-04-15T13:59:39.090Z,91.70
2018-04-15T14:02:05.831Z,91.60
2018-04-15T14:04:32.567Z,91.60
2018-04-15T14:06:59.308Z,91.40
2018-04-15T14:09:26.054Z,91.60
2018-04-15T14:11:52.786Z,91.40
2018-04-15T14:14:19.527Z,91.40
2018-04-15T14:16:46.375Z,91.70
2018-04-15T14:19:13.289Z,91.80
2018-04-15T14:21:40.771Z,91.90
2018-04-15T14:24:07.509Z,91.90
2018-04-15T14:26:34.170Z,91.90
2018-04-15T14:29:00.893Z,91.80
2018-04-15T14:31:27.573Z,92.00
2018-04-15T14:33:54.236Z,92.00
2018-04-15T14:36:21.846Z,91.90
2018-04-15T14:38:48.571Z,91.90
2018-04-15T14:41:15.306Z,91.50
2018-04-15T14:43:42.066Z,91.40
2018-04-15T14:46:08.726Z,91.20
2018-04-15T14:48:36.146Z,91.70
2018-04-15T14:51:03.089Z,91.70
2018-04-15T14:53:29.833Z,91.80
2018-04-15T14:55:56.448Z,91.90
2018-04-15T14:58:23.201Z,92.00
2018-04-15T15:00:50.151Z,92.00
2018-04-15T15:03:16.994Z,92.10
2018-04-15T15:05:43.836Z,92.10
2018-04-15T15:08:10.518Z,92.30
2018-04-15T15:10:37.311Z,92.40
2018-04-15T15:13:04.056Z,92.50
2018-04-15T15:15:30.694Z,92.50
2018-04-15T15:17:57.535Z,92.60
2018-04-15T15:20:24.110Z,92.50
2018-04-15T15:22:51.630Z,92.80
2018-04-15T15:25:18.284Z,92.80
2018-04-15T15:27:44.893Z,92.60
2018-04-15T15:30:11.474Z,92.70
2018-04-15T15:32:38.854Z,92.80
2018-04-15T15:35:05.534Z,92.80
2018-04-15T15:37:32.268Z,92.60
2018-04-15T15:39:58.852Z,92.50
2018-04-15T15:42:25.556Z,92.70
2018-04-15T15:44:52.388Z,92.80
2018-04-15T15:47:19.171Z,92.80
2018-04-15T15:49:46.471Z,92.70
2018-04-15T15:52:13.426Z,92.70
2018-04-15T15:54:40.175Z,92.60
2018-04-15T15:57:06.812Z,92.70
2018-04-15T15:59:33.546Z,92.70
2018-04-15T16:02:01.208Z,92.60
2018-04-15T16:04:27.814Z,92.50
2018-04-15T16:06:54.483Z,92.60
2018-04-15T16:09:21.064Z,92.50
2018-04-15T16:11:48.473Z,92.50
2018-04-15T16:14:15.215Z,92.50
2018-04-15T16:16:42.741Z,92.60
2018-04-15T16:19:09.410Z,92.60
2018-04-15T16:21:35.989Z,92.50
2018-04-15T16:24:02.678Z,92.70
2018-04-15T16:26:29.426Z,92.80
2018-04-15T16:28:56.060Z,92.80
2018-04-15T16:31:22.795Z,93.00
2018-04-15T16:33:49.440Z,93.10
2018-04-15T16:36:16.177Z,93.20
2018-04-15T16:38:43.023Z,93.30
2018-04-15T16:41:09.917Z,93.40
2018-04-15T16:43:36.574Z,93.50
2018-04-15T16:46:03.346Z,93.60
2018-04-15T16:48:29.984Z,93.60
2018-04-15T16:50:56.694Z,93.70
2018-04-15T16:53:23.357Z,93.70
2018-04-15T16:55:49.991Z,93.90
2018-04-15T16:58:16.556Z,94.10
2018-04-15T17:00:43.985Z,94.20
2018-04-15T17:03:10.823Z,94.10
2018-04-15T17:05:37.384Z,94.20
2018-04-15T17:08:04.107Z,94.30
2018-04-15T17:10:30.846Z,94.40
2018-04-15T17:12:57.790Z,94.60
2018-04-15T17:15:24.530Z,94.60
2018-04-15T17:17:51.266Z,94.80
2018-04-15T17:20:18.009Z,94.80
2018-04-15T17:22:44.746Z,94.90
2018-04-15T17:25:11.313Z,94.90
2018-04-15T17:27:38.677Z,95.00
2018-04-15T17:30:08.295Z,95.10
2018-04-15T17:32:34.958Z,95.10
2018-04-15T17:35:01.727Z,95.30
2018-04-15T17:37:28.465Z,95.40
2018-04-15T17:39:55.260Z,95.60
2018-04-15T17:42:21.917Z,95.70
2018-04-15T17:44:48.580Z,95.80
2018-04-15T17:47:15.165Z,96.00
2018-04-15T17:49:41.859Z,96.50
2018-04-15T17:52:08.601Z,96.40
2018-04-15T17:54:35.339Z,96.60
2018-04-15T17:57:01.904Z,96.70
2018-04-15T17:59:29.326Z,97.10
2018-04-15T18:01:56.021Z,97.10
2018-04-15T18:04:22.914Z,97.10
2018-04-15T18:06:49.549Z,97.20
2018-04-15T18:09:16.291Z,97.40
2018-04-15T18:11:43.952Z,97.80
2018-04-15T18:14:10.691Z,97.80
2018-04-15T18:16:37.534Z,97.90
2018-04-15T18:19:04.376Z,98.10
2018-04-15T18:21:31.172Z,98.30
2018-04-15T18:23:57.851Z,98.50
2018-04-15T18:26:24.698Z,98.70
2018-04-15T18:28:51.289Z,98.90
2018-04-15T18:31:17.864Z,99.00
2018-04-15T18:33:45.018Z,99.20
2018-04-15T18:36:11.581Z,99.40
2018-04-15T18:38:38.265Z,99.50
2018-04-15T18:41:05.036Z,99.60
2018-04-15T18:43:31.746Z,99.60
2018-04-15T18:45:58.382Z,99.80
2018-04-15T18:48:24.984Z,99.90
2018-04-15T18:50:52.509Z,99.90
2018-04-15T18:53:19.248Z,99.90
2018-04-15T18:55:46.096Z,99.90
2018-04-15T18:58:14.366Z,99.90
2018-04-15T19:00:41.096Z,99.90
2018-04-15T19:03:07.664Z,99.90
2018-04-15T19:05:34.266Z,99.90
2018-04-15T19:08:00.825Z,99.90
2018-04-15T19:10:27.656Z,99.90
2018-04-15T19:12:55.830Z,99.90
2018-04-15T19:15:22.671Z,99.90
2018-04-15T19:17:49.279Z,99.90
2018-04-15T19:20:16.049Z,99.90
2018-04-15T19:22:42.789Z,99.90
2018-04-15T19:25:09.428Z,99.90
2018-04-15T19:27:36.001Z,99.90
2018-04-15T19:30:03.472Z,99.90
2018-04-15T19:32:30.363Z,99.90
2018-04-15T19:34:56.933Z,99.90
2018-04-15T19:37:24.232Z,99.90
2018-04-15T19:39:50.885Z,99.90
2018-04-15T19:42:17.466Z,99.90
2018-04-15T19:44:44.579Z,99.90
2018-04-15T19:47:11.312Z,99.90
2018-04-15T19:49:38.161Z,99.90
2018-04-15T19:52:04.963Z,99.90
2018-04-15T19:54:31.632Z,99.90
2018-04-15T19:56:58.213Z,99.90
2018-04-15T19:59:25.831Z,99.90
2018-04-15T20:01:52.540Z,99.90
2018-04-15T20:04:19.273Z,99.90
2018-04-15T20:06:46.667Z,99.90
2018-04-15T20:09:13.406Z,99.90
2018-04-15T20:11:40.245Z,99.90
2018-04-15T20:14:07.007Z,99.90
2018-04-15T20:16:34.447Z,99.90
2018-04-15T20:19:01.187Z,99.90
2018-04-15T20:21:27.813Z,99.90
2018-04-15T20:23:54.497Z,99.90
2018-04-15T20:26:21.060Z,99.90
2018-04-15T20:28:47.735Z,99.90
2018-04-15T20:31:14.679Z,99.90
2018-04-15T20:33:41.421Z,99.90
2018-04-15T20:36:08.128Z,99.90
2018-04-15T20:38:34.902Z,99.90
2018-04-15T20:41:01.644Z,99.90
2018-04-15T20:43:28.394Z,99.90
2018-04-15T20:45:55.823Z,99.90
2018-04-15T20:48:22.437Z,99.90
2018-04-15T20:50:49.081Z,99.90
2018-04-15T20:53:15.852Z,99.90
2018-04-15T20:55:42.431Z,99.90
2018-04-15T20:58:09.090Z,99.90
2018-04-15T21:00:35.721Z,99.90
2018-04-15T21:03:02.522Z,99.90
2018-04-15T21:05:29.158Z,99.90
2018-04-15T21:07:55.850Z,99.90
2018-04-15T21:10:23.843Z,99.90
2018-04-15T21:12:50.489Z,99.90
2018-04-15T21:15:17.097Z,99.90
2018-04-15T21:17:44.169Z,99.90
2018-04-15T21:20:10.805Z,99.90
2018-04-15T21:22:37.410Z,99.90
2018-04-15T21:25:04.985Z,99.90
2018-04-15T21:27:31.651Z,99.90
2018-04-15T21:29:58.233Z,99.90
2018-04-15T21:32:24.829Z,99.90
2018-04-15T21:34:51.556Z,99.90
2018-04-15T21:37:18.172Z,99.90
2018-04-15T21:39:44.770Z,99.90
2018-04-15T21:42:11.673Z,99.90
2018-04-15T21:44:38.413Z,99.90
2018-04-15T21:47:05.152Z,99.90
2018-04-15T21:49:31.746Z,99.90
2018-04-15T21:51:58.431Z,99.90
2018-04-15T21:54:25.269Z,99.90
2018-04-15T21:56:52.316Z,99.90
2018-04-15T21:59:18.943Z,99.90
2018-04-15T22:01:45.591Z,99.90
2018-04-15T22:04:12.241Z,99.90
2018-04-15T22:06:38.966Z,99.90
2018-04-15T22:09:06.393Z,99.90
2018-04-15T22:11:45.537Z,99.90
2018-04-15T22:14:12.296Z,99.90
2018-04-15T22:16:39.037Z,99.90
2018-04-15T22:19:07.314Z,99.90
2018-04-15T22:21:33.952Z,99.90
2018-04-15T22:24:00.684Z,99.90
2018-04-15T22:26:27.535Z,99.90
2018-04-15T22:28:55.709Z,99.90
2018-04-15T22:31:22.651Z,99.90
2018-04-15T22:33:49.390Z,99.90
2018-04-15T22:36:16.130Z,99.90
2018-04-15T22:38:42.753Z,99.90
2018-04-15T22:41:09.509Z,99.90
2018-04-15T22:43:36.653Z,99.90
2018-04-15T22:46:03.259Z,99.90
2018-04-15T22:48:36.076Z,99.90
2018-04-15T22:51:04.247Z,99.90
2018-04-15T22:53:30.890Z,99.90
2018-04-15T22:55:57.733Z,99.90
2018-04-15T22:58:24.470Z,99.90
2018-04-15T23:00:51.414Z,99.90
2018-04-15T23:03:18.153Z,99.90
2018-04-15T23:05:44.800Z,99.90
2018-04-15T23:08:11.650Z,99.90
2018-04-15T23:10:38.476Z,99.90
2018-04-15T23:13:05.184Z,99.90
2018-04-15T23:15:32.878Z,99.90
2018-04-15T23:17:59.720Z,99.90
2018-04-15T23:20:26.562Z,99.90
2018-04-15T23:22:53.501Z,99.90
2018-04-15T23:25:20.146Z,99.90
2018-04-15T23:27:46.854Z,99.90
2018-04-15T23:30:14.274Z,99.90
2018-04-15T23:32:41.081Z,99.90
2018-04-15T23:35:08.025Z,99.90
2018-04-15T23:37:34.817Z,99.90
2018-04-15T23:40:02.321Z,99.90
2018-04-15T23:42:29.168Z,99.90
2018-04-15T23:44:56.017Z,99.90
2018-04-15T23:47:22.660Z,99.90
2018-04-15T23:49:49.490Z,99.90
2018-04-15T23:52:16.434Z,99.90
2018-04-15T23:54:43.245Z,99.90
2018-04-15T23:57:10.690Z,99.90
2018-04-15T23:59:38.285Z,99.90
